KLBB/LBB METAR and TAF weather

Enter ICAO airport designator
Station Type Date Time Source
KLBB METAR 2021/05/17 21:53 UTC NOAA

KLBB 172153Z 12011KT 10SM SCT044 BKN055 25/14 A2983 RMK AO2 SLP056 CB DSNT NE-E AND SW-NW MOV NE T02500139


Station Type Date Time Source
KLBB Decoded METAR 2021/05/17 21:53 UTC NOAA

LUBBOCK INTERNATIONAL AIRPORT , TX, United States (KLBB) 33-40N 101-49W 992M
May 17, 2021 - 05:53 PM EDT / 2021.05.17 2153 UTC
Wind: from the ESE (120 degrees) at 13 MPH (11 KT):0
Visibility: 10 mile(s):0
Sky conditions: mostly cloudy
Weather: Cumulonimbus clouds observed
Temperature: 77.0 F (25.0 C)
Dew Point: 57.0 F (13.9 C)
Relative Humidity: 50%
Pressure (altimeter): 29.83 in. Hg (1010 hPa)
ob: KLBB 172153Z 12011KT 10SM SCT044 BKN055 25/14 A2983 RMK AO2 SLP056 CB DSNT NE-E AND SW-NW MOV NE T02500139
cycle: 22

Station Type Date Time Source
KLBB TAF 2021/05/17 18:45 UTC NOAA

TAF KLBB 171742Z 1718/1818 14015KT P6SM BKN045
FM172200 14020G30KT P6SM VCTS SCT050CB BKN150
TEMPO 1723/1802 VRB25G40KT 4SM TSRAGR BKN035CB OVC050
FM180200 05011KT P6SM SCT100 BKN200
FM181000 11011KT P6SM BKN015 PROB30 1810/1816 4SM TSRA BKN035CB

Example: see airport list